createdAt,value
2023-08-24T00:00:02.034Z,17.8
2023-08-24T00:05:01.706Z,17.94
2023-08-24T00:10:02.062Z,17.93
2023-08-24T00:15:01.436Z,17.91
2023-08-24T00:20:02.030Z,17.81
2023-08-24T00:25:02.042Z,17.81
2023-08-24T00:30:02.244Z,17.77
2023-08-24T00:35:02.250Z,17.64
2023-08-24T00:40:02.268Z,17.53
2023-08-24T00:45:02.015Z,17.25
2023-08-24T00:50:01.842Z,17.14
2023-08-24T00:55:02.104Z,16.96
2023-08-24T01:00:02.144Z,17
2023-08-24T01:05:01.822Z,17.04
2023-08-24T01:10:01.866Z,17.06
2023-08-24T01:15:01.337Z,16.98
2023-08-24T01:20:01.623Z,16.96
2023-08-24T01:25:01.670Z,17.08
2023-08-24T01:30:01.660Z,16.93
2023-08-24T01:35:02.140Z,16.91
2023-08-24T01:40:02.246Z,16.88
2023-08-24T01:45:02.138Z,16.8
2023-08-24T01:50:02.238Z,16.87
2023-08-24T01:55:02.669Z,17.14
2023-08-24T02:00:02.253Z,17.68
2023-08-24T02:05:01.305Z,17.9
2023-08-24T02:10:02.105Z,17.96
2023-08-24T02:15:01.588Z,17.95
2023-08-24T02:20:01.298Z,17.92
2023-08-24T02:25:01.892Z,17.96
2023-08-24T02:30:01.748Z,17.95
2023-08-24T02:35:01.500Z,17.92
2023-08-24T02:40:01.363Z,17.66
2023-08-24T02:45:02.160Z,17.65
2023-08-24T02:50:02.258Z,17.67
2023-08-24T02:55:01.968Z,17.6
2023-08-24T03:00:01.503Z,17.56
2023-08-24T03:05:02.004Z,17.4
2023-08-24T03:10:02.066Z,17.36
2023-08-24T03:15:01.417Z,17.32
2023-08-24T03:20:02.173Z,17.26
2023-08-24T03:25:01.584Z,17.24
2023-08-24T03:30:01.809Z,17.24
2023-08-24T03:35:01.858Z,17.21
2023-08-24T03:40:01.595Z,17.19
2023-08-24T03:45:01.856Z,17.09
2023-08-24T03:50:02.093Z,17.08
2023-08-24T03:55:01.574Z,17.18
2023-08-24T04:00:02.242Z,17.19
2023-08-24T04:05:02.074Z,17.14
2023-08-24T04:10:02.082Z,17.13
2023-08-24T04:15:01.434Z,17.11
2023-08-24T04:20:02.143Z,17.26
2023-08-24T04:25:01.957Z,17.22
2023-08-24T04:30:02.100Z,17.31
2023-08-24T04:35:01.487Z,17.46
2023-08-24T04:40:01.790Z,17.62
2023-08-24T04:45:02.142Z,17.75
2023-08-24T04:50:02.221Z,17.77
2023-08-24T04:55:02.009Z,17.8
2023-08-24T05:00:02.012Z,17.84
2023-08-24T05:05:02.081Z,17.7
2023-08-24T05:10:02.102Z,17.6
2023-08-24T05:15:02.133Z,17.52
2023-08-24T05:20:02.293Z,17.43
2023-08-24T05:25:01.865Z,17.6
2023-08-24T05:30:02.164Z,17.55
2023-08-24T05:35:01.259Z,17.55
2023-08-24T05:40:04.752Z,17.55
2023-08-24T05:45:02.054Z,17.82
2023-08-24T05:50:02.142Z,17.88
2023-08-24T05:55:02.060Z,17.87
2023-08-24T06:00:01.344Z,17.9
2023-08-24T06:05:01.948Z,17.96
2023-08-24T06:10:02.215Z,17.9
2023-08-24T06:15:02.156Z,17.92
2023-08-24T06:20:02.023Z,17.99
2023-08-24T06:25:02.160Z,17.91
2023-08-24T06:30:01.513Z,18.21
2023-08-24T06:35:01.869Z,18.33
2023-08-24T06:40:02.257Z,19
2023-08-24T06:45:01.540Z,19.54
2023-08-24T06:50:02.264Z,20.04
2023-08-24T06:55:01.729Z,20.42
2023-08-24T07:00:02.075Z,20.53
2023-08-24T07:05:02.238Z,20.51
2023-08-24T07:10:01.664Z,20.5
2023-08-24T07:15:02.104Z,20.66
2023-08-24T07:20:01.550Z,20.81
2023-08-24T07:25:04.802Z,21.06
2023-08-24T07:30:01.933Z,21.22
2023-08-24T07:35:01.263Z,21.32
2023-08-24T07:40:01.723Z,21.65
2023-08-24T07:45:01.808Z,21.77
2023-08-24T07:50:01.974Z,22.25
2023-08-24T07:55:01.330Z,22.39
2023-08-24T08:00:01.547Z,22.68
2023-08-24T08:05:01.993Z,22.65
2023-08-24T08:10:01.365Z,22.88
2023-08-24T08:15:01.654Z,23.21
2023-08-24T08:20:02.129Z,23.25
2023-08-24T08:25:02.189Z,23.4
2023-08-24T08:30:02.282Z,24.09
2023-08-24T08:35:01.418Z,24.39
2023-08-24T08:40:01.777Z,24.5
2023-08-24T08:45:01.782Z,24.23
2023-08-24T08:50:02.105Z,24.42
2023-08-24T08:55:01.287Z,24.77
2023-08-24T09:00:01.616Z,24.68
2023-08-24T09:05:02.158Z,24.74
2023-08-24T09:10:01.255Z,25.02
2023-08-24T09:15:01.612Z,25.15
2023-08-24T09:20:02.105Z,25.12
2023-08-24T09:25:02.173Z,25.04
2023-08-24T09:30:02.132Z,25.28
2023-08-24T09:35:02.125Z,25.62
2023-08-24T09:40:01.420Z,25.69
2023-08-24T09:45:01.969Z,25.84
2023-08-24T09:50:02.122Z,25.94
2023-08-24T09:55:01.316Z,25.97
2023-08-24T10:00:01.582Z,25.91
2023-08-24T10:05:01.574Z,25.64
2023-08-24T10:10:02.137Z,25.92
2023-08-24T10:15:02.148Z,25.9
2023-08-24T10:20:02.168Z,25.88
2023-08-24T10:25:01.377Z,25.6
2023-08-24T10:30:01.912Z,25.52
2023-08-24T10:35:01.635Z,25.48
2023-08-24T10:40:01.364Z,25.48
2023-08-24T10:45:01.986Z,25.63
2023-08-24T10:50:01.501Z,25.53
2023-08-24T10:55:01.891Z,25.61
2023-08-24T11:00:01.928Z,25.66
2023-08-24T11:05:02.147Z,25.84
2023-08-24T11:10:01.520Z,25.75
2023-08-24T11:15:02.041Z,25.77
2023-08-24T11:20:04.207Z,25.96
2023-08-24T11:25:02.177Z,26.06
2023-08-24T11:30:02.415Z,26.05
2023-08-24T11:35:01.321Z,26.06
2023-08-24T11:40:01.874Z,26.06
2023-08-24T11:45:02.114Z,26.17
2023-08-24T11:50:01.946Z,26.31
2023-08-24T11:55:01.739Z,25.86
2023-08-24T12:00:02.130Z,25.65
2023-08-24T12:05:01.360Z,25.57
2023-08-24T12:10:02.011Z,25.5
2023-08-24T12:15:02.153Z,25.65
2023-08-24T12:20:01.583Z,25.68
2023-08-24T12:25:01.966Z,25.51
2023-08-24T12:30:01.443Z,25.46
2023-08-24T12:35:02.243Z,25.42
2023-08-24T12:40:01.533Z,25.23
2023-08-24T12:45:02.025Z,24.9
2023-08-24T12:50:01.400Z,24.46
2023-08-24T12:55:01.670Z,24.05
2023-08-24T13:00:02.271Z,23.74
2023-08-24T13:05:01.945Z,23.37
2023-08-24T13:10:01.260Z,23.09
2023-08-24T13:15:01.376Z,22.93
2023-08-24T13:20:01.989Z,22.81
2023-08-24T13:25:01.503Z,22.62
2023-08-24T13:30:02.182Z,22.55
2023-08-24T13:35:01.301Z,22.44
2023-08-24T13:40:01.918Z,22.29
2023-08-24T13:45:01.306Z,22.12
2023-08-24T13:50:02.009Z,22.02
2023-08-24T13:55:12.329Z,22.03
2023-08-24T14:00:01.378Z,22.12
2023-08-24T14:05:01.854Z,22.13
2023-08-24T14:10:06.533Z,22.09
2023-08-24T14:15:01.403Z,21.99
2023-08-24T14:20:01.878Z,21.92
2023-08-24T14:25:02.104Z,21.8
2023-08-24T14:30:01.421Z,21.83
2023-08-24T14:35:01.913Z,21.84
2023-08-24T14:40:02.154Z,21.99
2023-08-24T14:45:01.297Z,21.68
2023-08-24T14:50:01.643Z,21.75
2023-08-24T14:55:01.984Z,21.57
2023-08-24T15:00:02.118Z,21.34
2023-08-24T15:05:01.936Z,21.39
2023-08-24T15:10:01.399Z,21.4
2023-08-24T15:15:01.917Z,21.33
2023-08-24T15:20:01.426Z,21.46
2023-08-24T15:25:02.030Z,21.37
2023-08-24T15:30:01.476Z,21.29
2023-08-24T15:35:02.046Z,21.15
2023-08-24T15:40:01.938Z,20.88
2023-08-24T15:45:01.759Z,20.63
2023-08-24T15:50:02.017Z,20.43
2023-08-24T15:55:01.918Z,20.28
2023-08-24T16:00:02.300Z,20.17
2023-08-24T16:05:02.479Z,20.14
2023-08-24T16:10:02.719Z,19.95
2023-08-24T16:15:01.484Z,19.87
2023-08-24T16:20:01.528Z,19.89
2023-08-24T16:25:01.743Z,19.91
2023-08-24T16:30:01.639Z,19.98
2023-08-24T16:35:01.730Z,19.94
2023-08-24T16:40:01.494Z,19.95
2023-08-24T16:45:01.619Z,19.85
2023-08-24T16:50:01.881Z,19.91
2023-08-24T16:55:02.175Z,19.86
2023-08-24T17:00:02.335Z,19.89
2023-08-24T17:05:01.647Z,19.95
2023-08-24T17:10:02.017Z,19.9
2023-08-24T17:15:02.453Z,19.91
2023-08-24T17:20:02.014Z,19.89
2023-08-24T17:25:02.635Z,19.87
2023-08-24T17:30:02.103Z,19.85
2023-08-24T17:35:02.432Z,19.84
2023-08-24T17:40:02.475Z,19.83
2023-08-24T17:45:02.437Z,19.86
2023-08-24T17:50:03.072Z,19.84
2023-08-24T17:55:02.493Z,19.87
2023-08-24T18:00:03.146Z,19.98
2023-08-24T18:05:01.957Z,20
2023-08-24T18:10:02.109Z,20.06
2023-08-24T18:15:01.700Z,20.06
2023-08-24T18:20:02.591Z,20.11
2023-08-24T18:25:02.219Z,20.11
2023-08-24T18:30:02.276Z,20.12
2023-08-24T18:35:02.067Z,20.14
2023-08-24T18:40:02.563Z,20.1
2023-08-24T18:45:02.898Z,20.09
2023-08-24T18:50:02.004Z,20.04
2023-08-24T18:55:02.338Z,19.88
2023-08-24T19:00:01.734Z,19.94
2023-08-24T19:05:01.779Z,19.86
2023-08-24T19:10:02.136Z,19.83
2023-08-24T19:15:02.086Z,19.68
2023-08-24T19:20:02.246Z,19.55
2023-08-24T19:25:02.020Z,19.55
2023-08-24T19:30:01.836Z,19.54
2023-08-24T19:35:01.433Z,19.48
2023-08-24T19:40:01.830Z,19.3
2023-08-24T19:45:01.796Z,19.33
2023-08-24T19:50:02.074Z,19.22
2023-08-24T19:55:01.735Z,19.07
2023-08-24T20:00:02.087Z,19.11
2023-08-24T20:05:03.430Z,19.05
2023-08-24T20:10:01.437Z,18.98
2023-08-24T20:15:02.088Z,18.92
2023-08-24T20:20:01.718Z,18.89
2023-08-24T20:25:01.868Z,18.87
2023-08-24T20:30:02.128Z,18.69
2023-08-24T20:35:01.409Z,18.61
2023-08-24T20:40:01.969Z,18.44
2023-08-24T20:45:02.103Z,18.34
2023-08-24T20:50:01.365Z,18.2
2023-08-24T20:55:01.572Z,18.24
2023-08-24T21:00:01.891Z,18.17
2023-08-24T21:05:02.060Z,18.25
2023-08-24T21:10:01.360Z,18.23
2023-08-24T21:15:01.986Z,18.25
2023-08-24T21:20:02.232Z,18.32
2023-08-24T21:25:01.395Z,18.36
2023-08-24T21:30:01.641Z,18.39
2023-08-24T21:35:01.909Z,18.36
2023-08-24T21:40:02.012Z,18.42
2023-08-24T21:45:02.150Z,18.4
2023-08-24T21:50:02.265Z,18.47
2023-08-24T21:55:02.040Z,18.47
2023-08-24T22:00:02.081Z,18.48
2023-08-24T22:05:01.803Z,18.53
2023-08-24T22:10:02.120Z,18.55
2023-08-24T22:15:02.083Z,18.54
2023-08-24T22:20:01.370Z,18.53
2023-08-24T22:25:01.703Z,18.44
2023-08-24T22:30:02.000Z,18.36
2023-08-24T22:35:02.247Z,18.33
2023-08-24T22:40:01.902Z,18.41
2023-08-24T22:45:02.114Z,18.53
2023-08-24T22:50:01.320Z,18.55
2023-08-24T22:55:01.627Z,18.49
2023-08-24T23:00:01.824Z,18.35
2023-08-24T23:05:02.134Z,18.09
2023-08-24T23:10:02.234Z,17.98
2023-08-24T23:15:01.297Z,17.96
2023-08-24T23:20:01.829Z,18
2023-08-24T23:25:02.147Z,17.95
2023-08-24T23:30:02.111Z,17.91
2023-08-24T23:35:02.108Z,17.93
2023-08-24T23:40:02.067Z,17.84
2023-08-24T23:45:01.555Z,17.8
2023-08-24T23:50:01.909Z,17.81
2023-08-24T23:55:01.985Z,17.91
